sensor_id;sensor_type;location;lat;lon;timestamp;P1;durP1;ratioP1;P2;durP2;ratioP2
77880;SDS011;67077;50.298;18.996;2024-03-06T00:01:22;163.30;;;68.50;;
77880;SDS011;67077;50.298;18.996;2024-03-06T00:03:50;163.90;;;67.90;;
77880;SDS011;67077;50.298;18.996;2024-03-06T00:06:18;169.10;;;70.70;;
77880;SDS011;67077;50.298;18.996;2024-03-06T00:08:46;156.30;;;68.70;;
77880;SDS011;67077;50.298;18.996;2024-03-06T00:11:14;163.20;;;69.20;;
77880;SDS011;67077;50.298;18.996;2024-03-06T00:13:42;159.60;;;67.60;;
77880;SDS011;67077;50.298;18.996;2024-03-06T00:16:10;170.50;;;70.40;;
77880;SDS011;67077;50.298;18.996;2024-03-06T00:18:38;150.90;;;65.60;;
77880;SDS011;67077;50.298;18.996;2024-03-06T00:21:06;151.10;;;65.60;;
77880;SDS011;67077;50.298;18.996;2024-03-06T00:23:34;150.80;;;64.10;;
77880;SDS011;67077;50.298;18.996;2024-03-06T00:26:03;151.80;;;63.20;;
77880;SDS011;67077;50.298;18.996;2024-03-06T00:28:31;153.80;;;63.40;;
77880;SDS011;67077;50.298;18.996;2024-03-06T00:30:59;147.00;;;61.30;;
77880;SDS011;67077;50.298;18.996;2024-03-06T00:33:27;150.80;;;62.70;;
77880;SDS011;67077;50.298;18.996;2024-03-06T00:35:54;166.80;;;71.40;;
77880;SDS011;67077;50.298;18.996;2024-03-06T00:38:22;171.00;;;72.60;;
77880;SDS011;67077;50.298;18.996;2024-03-06T00:40:50;170.60;;;73.10;;
77880;SDS011;67077;50.298;18.996;2024-03-06T00:43:18;171.40;;;73.60;;
77880;SDS011;67077;50.298;18.996;2024-03-06T00:45:46;172.30;;;74.40;;
77880;SDS011;67077;50.298;18.996;2024-03-06T00:48:13;178.80;;;77.90;;
77880;SDS011;67077;50.298;18.996;2024-03-06T00:50:41;181.10;;;75.00;;
77880;SDS011;67077;50.298;18.996;2024-03-06T00:53:09;179.10;;;73.80;;
77880;SDS011;67077;50.298;18.996;2024-03-06T00:55:37;207.60;;;79.50;;
77880;SDS011;67077;50.298;18.996;2024-03-06T00:58:05;224.60;;;87.30;;
77880;SDS011;67077;50.298;18.996;2024-03-06T01:00:34;284.50;;;80.60;;
77880;SDS011;67077;50.298;18.996;2024-03-06T01:03:02;196.90;;;71.60;;
77880;SDS011;67077;50.298;18.996;2024-03-06T01:05:30;316.90;;;65.40;;
77880;SDS011;67077;50.298;18.996;2024-03-06T01:07:58;297.00;;;58.60;;
77880;SDS011;67077;50.298;18.996;2024-03-06T01:10:26;351.50;;;56.80;;
77880;SDS011;67077;50.298;18.996;2024-03-06T01:12:54;169.40;;;50.80;;
77880;SDS011;67077;50.298;18.996;2024-03-06T01:15:22;226.10;;;49.70;;
77880;SDS011;67077;50.298;18.996;2024-03-06T01:17:50;305.40;;;53.00;;
77880;SDS011;67077;50.298;18.996;2024-03-06T01:20:17;409.00;;;52.80;;
77880;SDS011;67077;50.298;18.996;2024-03-06T01:22:46;355.80;;;51.40;;
77880;SDS011;67077;50.298;18.996;2024-03-06T01:25:14;199.90;;;45.30;;
77880;SDS011;67077;50.298;18.996;2024-03-06T01:27:42;312.50;;;47.40;;
77880;SDS011;67077;50.298;18.996;2024-03-06T01:30:09;392.90;;;49.60;;
77880;SDS011;67077;50.298;18.996;2024-03-06T01:32:38;336.60;;;47.90;;
77880;SDS011;67077;50.298;18.996;2024-03-06T01:35:05;249.90;;;43.90;;
77880;SDS011;67077;50.298;18.996;2024-03-06T01:37:34;288.00;;;47.50;;
77880;SDS011;67077;50.298;18.996;2024-03-06T01:40:02;283.50;;;48.10;;
77880;SDS011;67077;50.298;18.996;2024-03-06T01:42:32;316.40;;;47.30;;
77880;SDS011;67077;50.298;18.996;2024-03-06T01:45:00;273.60;;;45.60;;
77880;SDS011;67077;50.298;18.996;2024-03-06T01:47:29;260.40;;;45.30;;
77880;SDS011;67077;50.298;18.996;2024-03-06T01:49:56;213.90;;;46.50;;
77880;SDS011;67077;50.298;18.996;2024-03-06T01:52:25;323.30;;;47.90;;
77880;SDS011;67077;50.298;18.996;2024-03-06T01:54:54;244.60;;;44.70;;
77880;SDS011;67077;50.298;18.996;2024-03-06T01:57:23;205.00;;;43.70;;
77880;SDS011;67077;50.298;18.996;2024-03-06T01:59:52;226.40;;;43.10;;
77880;SDS011;67077;50.298;18.996;2024-03-06T02:02:20;147.00;;;37.90;;
77880;SDS011;67077;50.298;18.996;2024-03-06T02:04:48;211.00;;;39.50;;
77880;SDS011;67077;50.298;18.996;2024-03-06T02:07:16;201.10;;;39.30;;
77880;SDS011;67077;50.298;18.996;2024-03-06T02:09:46;186.40;;;39.70;;
77880;SDS011;67077;50.298;18.996;2024-03-06T02:12:13;175.60;;;38.60;;
77880;SDS011;67077;50.298;18.996;2024-03-06T02:14:42;280.20;;;45.70;;
77880;SDS011;67077;50.298;18.996;2024-03-06T02:17:10;184.10;;;38.70;;
77880;SDS011;67077;50.298;18.996;2024-03-06T02:19:39;194.40;;;42.00;;
77880;SDS011;67077;50.298;18.996;2024-03-06T02:22:09;209.20;;;41.00;;
77880;SDS011;67077;50.298;18.996;2024-03-06T02:24:38;192.50;;;40.90;;
77880;SDS011;67077;50.298;18.996;2024-03-06T02:27:08;163.40;;;40.20;;
77880;SDS011;67077;50.298;18.996;2024-03-06T02:29:36;227.90;;;41.30;;
77880;SDS011;67077;50.298;18.996;2024-03-06T02:32:05;166.40;;;40.40;;
77880;SDS011;67077;50.298;18.996;2024-03-06T02:34:33;184.50;;;43.50;;
77880;SDS011;67077;50.298;18.996;2024-03-06T02:37:01;120.80;;;39.30;;
77880;SDS011;67077;50.298;18.996;2024-03-06T02:39:29;175.20;;;42.30;;
77880;SDS011;67077;50.298;18.996;2024-03-06T02:41:57;176.20;;;43.50;;
77880;SDS011;67077;50.298;18.996;2024-03-06T02:44:25;178.30;;;42.90;;
77880;SDS011;67077;50.298;18.996;2024-03-06T02:46:52;176.20;;;44.00;;
77880;SDS011;67077;50.298;18.996;2024-03-06T02:49:20;204.60;;;40.70;;
77880;SDS011;67077;50.298;18.996;2024-03-06T02:51:48;192.10;;;42.40;;
77880;SDS011;67077;50.298;18.996;2024-03-06T02:54:16;177.50;;;39.20;;
77880;SDS011;67077;50.298;18.996;2024-03-06T02:56:44;182.70;;;39.10;;
77880;SDS011;67077;50.298;18.996;2024-03-06T02:59:12;151.10;;;37.80;;
77880;SDS011;67077;50.298;18.996;2024-03-06T03:01:40;209.60;;;39.20;;
77880;SDS011;67077;50.298;18.996;2024-03-06T03:04:09;149.30;;;37.20;;
77880;SDS011;67077;50.298;18.996;2024-03-06T03:06:37;161.10;;;35.60;;
77880;SDS011;67077;50.298;18.996;2024-03-06T03:09:05;165.20;;;37.30;;
77880;SDS011;67077;50.298;18.996;2024-03-06T03:11:33;161.80;;;36.90;;
77880;SDS011;67077;50.298;18.996;2024-03-06T03:14:01;145.10;;;34.70;;
77880;SDS011;67077;50.298;18.996;2024-03-06T03:16:29;176.10;;;37.20;;
77880;SDS011;67077;50.298;18.996;2024-03-06T03:18:57;136.50;;;37.40;;
77880;SDS011;67077;50.298;18.996;2024-03-06T03:21:25;131.60;;;35.60;;
77880;SDS011;67077;50.298;18.996;2024-03-06T03:23:53;145.60;;;35.00;;
77880;SDS011;67077;50.298;18.996;2024-03-06T03:26:20;148.60;;;35.90;;
77880;SDS011;67077;50.298;18.996;2024-03-06T03:28:48;125.80;;;33.50;;
77880;SDS011;67077;50.298;18.996;2024-03-06T03:31:16;149.60;;;35.00;;
77880;SDS011;67077;50.298;18.996;2024-03-06T03:33:44;227.30;;;34.20;;
77880;SDS011;67077;50.298;18.996;2024-03-06T03:36:12;133.60;;;33.20;;
77880;SDS011;67077;50.298;18.996;2024-03-06T03:38:39;140.10;;;33.40;;
77880;SDS011;67077;50.298;18.996;2024-03-06T03:41:08;179.70;;;38.40;;
77880;SDS011;67077;50.298;18.996;2024-03-06T03:43:38;185.60;;;39.80;;
77880;SDS011;67077;50.298;18.996;2024-03-06T03:46:06;181.30;;;39.50;;
77880;SDS011;67077;50.298;18.996;2024-03-06T03:48:34;223.60;;;41.20;;
77880;SDS011;67077;50.298;18.996;2024-03-06T03:51:04;228.30;;;46.20;;
77880;SDS011;67077;50.298;18.996;2024-03-06T03:53:34;154.40;;;39.80;;
77880;SDS011;67077;50.298;18.996;2024-03-06T03:56:02;188.50;;;44.60;;
77880;SDS011;67077;50.298;18.996;2024-03-06T03:58:30;178.80;;;39.20;;
77880;SDS011;67077;50.298;18.996;2024-03-06T04:00:58;94.90;;;33.00;;
77880;SDS011;67077;50.298;18.996;2024-03-06T04:03:26;137.20;;;34.70;;
77880;SDS011;67077;50.298;18.996;2024-03-06T04:05:54;200.70;;;35.90;;
77880;SDS011;67077;50.298;18.996;2024-03-06T04:08:22;116.70;;;34.60;;
77880;SDS011;67077;50.298;18.996;2024-03-06T04:10:51;127.60;;;34.80;;
77880;SDS011;67077;50.298;18.996;2024-03-06T04:13:18;215.60;;;37.70;;
77880;SDS011;67077;50.298;18.996;2024-03-06T04:15:47;93.70;;;32.30;;
77880;SDS011;67077;50.298;18.996;2024-03-06T04:18:15;128.70;;;31.20;;
77880;SDS011;67077;50.298;18.996;2024-03-06T04:20:43;150.20;;;31.30;;
77880;SDS011;67077;50.298;18.996;2024-03-06T04:23:11;129.30;;;28.80;;
77880;SDS011;67077;50.298;18.996;2024-03-06T04:25:39;131.40;;;31.50;;
77880;SDS011;67077;50.298;18.996;2024-03-06T04:28:07;131.60;;;31.10;;
77880;SDS011;67077;50.298;18.996;2024-03-06T04:30:37;115.60;;;31.30;;
77880;SDS011;67077;50.298;18.996;2024-03-06T04:33:05;151.10;;;33.70;;
77880;SDS011;67077;50.298;18.996;2024-03-06T04:35:33;157.10;;;33.90;;
77880;SDS011;67077;50.298;18.996;2024-03-06T04:38:01;211.10;;;39.70;;
77880;SDS011;67077;50.298;18.996;2024-03-06T04:40:31;195.30;;;34.00;;
77880;SDS011;67077;50.298;18.996;2024-03-06T04:42:58;155.30;;;32.20;;
77880;SDS011;67077;50.298;18.996;2024-03-06T04:45:27;124.00;;;29.00;;
77880;SDS011;67077;50.298;18.996;2024-03-06T04:47:56;122.20;;;29.60;;
77880;SDS011;67077;50.298;18.996;2024-03-06T04:50:24;131.20;;;31.00;;
77880;SDS011;67077;50.298;18.996;2024-03-06T04:52:52;90.70;;;28.10;;
77880;SDS011;67077;50.298;18.996;2024-03-06T04:55:20;136.70;;;28.40;;
77880;SDS011;67077;50.298;18.996;2024-03-06T04:57:50;176.90;;;28.00;;
77880;SDS011;67077;50.298;18.996;2024-03-06T05:00:20;115.60;;;25.60;;
77880;SDS011;67077;50.298;18.996;2024-03-06T05:02:48;149.20;;;27.20;;
77880;SDS011;67077;50.298;18.996;2024-03-06T05:05:16;112.40;;;26.70;;
77880;SDS011;67077;50.298;18.996;2024-03-06T05:07:44;129.20;;;27.90;;
77880;SDS011;67077;50.298;18.996;2024-03-06T05:10:12;122.10;;;28.00;;
77880;SDS011;67077;50.298;18.996;2024-03-06T05:12:40;128.00;;;27.30;;
77880;SDS011;67077;50.298;18.996;2024-03-06T05:15:09;144.50;;;29.50;;
77880;SDS011;67077;50.298;18.996;2024-03-06T05:17:41;89.10;;;25.40;;
77880;SDS011;67077;50.298;18.996;2024-03-06T05:20:09;140.70;;;29.10;;
77880;SDS011;67077;50.298;18.996;2024-03-06T05:22:38;126.00;;;26.60;;
77880;SDS011;67077;50.298;18.996;2024-03-06T05:25:05;77.20;;;26.40;;
77880;SDS011;67077;50.298;18.996;2024-03-06T05:27:33;129.50;;;26.80;;
77880;SDS011;67077;50.298;18.996;2024-03-06T05:30:02;70.60;;;25.00;;
77880;SDS011;67077;50.298;18.996;2024-03-06T05:32:32;109.70;;;27.10;;
77880;SDS011;67077;50.298;18.996;2024-03-06T05:35:00;170.50;;;28.50;;
77880;SDS011;67077;50.298;18.996;2024-03-06T05:37:28;137.80;;;28.80;;
77880;SDS011;67077;50.298;18.996;2024-03-06T05:39:56;177.20;;;28.70;;
77880;SDS011;67077;50.298;18.996;2024-03-06T05:42:24;111.90;;;28.30;;
77880;SDS011;67077;50.298;18.996;2024-03-06T05:44:51;215.10;;;31.50;;
77880;SDS011;67077;50.298;18.996;2024-03-06T05:47:22;137.40;;;29.60;;
77880;SDS011;67077;50.298;18.996;2024-03-06T05:49:49;138.00;;;27.80;;
77880;SDS011;67077;50.298;18.996;2024-03-06T05:52:17;172.90;;;30.30;;
77880;SDS011;67077;50.298;18.996;2024-03-06T05:54:45;212.00;;;34.10;;
77880;SDS011;67077;50.298;18.996;2024-03-06T05:57:13;93.50;;;27.50;;
77880;SDS011;67077;50.298;18.996;2024-03-06T05:59:42;143.30;;;30.20;;
77880;SDS011;67077;50.298;18.996;2024-03-06T06:02:10;145.70;;;32.10;;
77880;SDS011;67077;50.298;18.996;2024-03-06T06:04:38;170.40;;;31.50;;
77880;SDS011;67077;50.298;18.996;2024-03-06T06:07:06;96.50;;;29.20;;
77880;SDS011;67077;50.298;18.996;2024-03-06T06:09:33;92.30;;;29.20;;
77880;SDS011;67077;50.298;18.996;2024-03-06T06:12:01;142.90;;;30.30;;
77880;SDS011;67077;50.298;18.996;2024-03-06T06:14:30;70.30;;;26.50;;
77880;SDS011;67077;50.298;18.996;2024-03-06T06:16:58;121.20;;;30.60;;
77880;SDS011;67077;50.298;18.996;2024-03-06T06:19:26;124.40;;;30.20;;
77880;SDS011;67077;50.298;18.996;2024-03-06T06:21:54;117.50;;;29.60;;
77880;SDS011;67077;50.298;18.996;2024-03-06T06:24:22;111.10;;;30.30;;
77880;SDS011;67077;50.298;18.996;2024-03-06T06:26:50;98.00;;;29.40;;
77880;SDS011;67077;50.298;18.996;2024-03-06T06:29:18;110.10;;;30.30;;
77880;SDS011;67077;50.298;18.996;2024-03-06T06:31:46;82.30;;;28.10;;
77880;SDS011;67077;50.298;18.996;2024-03-06T06:34:14;88.80;;;28.20;;
77880;SDS011;67077;50.298;18.996;2024-03-06T06:36:45;89.70;;;28.30;;
77880;SDS011;67077;50.298;18.996;2024-03-06T06:39:13;103.70;;;29.60;;
77880;SDS011;67077;50.298;18.996;2024-03-06T06:41:41;95.90;;;29.70;;
77880;SDS011;67077;50.298;18.996;2024-03-06T06:44:10;126.30;;;31.10;;
77880;SDS011;67077;50.298;18.996;2024-03-06T06:46:39;125.20;;;32.10;;
77880;SDS011;67077;50.298;18.996;2024-03-06T06:49:06;114.10;;;32.50;;
77880;SDS011;67077;50.298;18.996;2024-03-06T06:51:34;102.90;;;30.90;;
77880;SDS011;67077;50.298;18.996;2024-03-06T06:54:02;106.40;;;34.60;;
77880;SDS011;67077;50.298;18.996;2024-03-06T06:56:31;153.30;;;35.20;;
77880;SDS011;67077;50.298;18.996;2024-03-06T06:58:59;144.30;;;34.10;;
77880;SDS011;67077;50.298;18.996;2024-03-06T07:01:27;115.40;;;32.40;;
77880;SDS011;67077;50.298;18.996;2024-03-06T07:03:57;116.80;;;31.20;;
77880;SDS011;67077;50.298;18.996;2024-03-06T07:06:25;124.80;;;33.10;;
77880;SDS011;67077;50.298;18.996;2024-03-06T07:08:53;89.40;;;31.10;;
77880;SDS011;67077;50.298;18.996;2024-03-06T07:11:21;104.60;;;34.30;;
77880;SDS011;67077;50.298;18.996;2024-03-06T07:13:49;111.50;;;33.70;;
77880;SDS011;67077;50.298;18.996;2024-03-06T07:16:17;87.40;;;32.30;;
77880;SDS011;67077;50.298;18.996;2024-03-06T07:18:45;122.10;;;32.40;;
77880;SDS011;67077;50.298;18.996;2024-03-06T07:21:14;137.00;;;31.70;;
77880;SDS011;67077;50.298;18.996;2024-03-06T07:23:42;126.60;;;32.40;;
77880;SDS011;67077;50.298;18.996;2024-03-06T07:26:09;99.10;;;32.10;;
77880;SDS011;67077;50.298;18.996;2024-03-06T07:28:37;100.20;;;31.80;;
77880;SDS011;67077;50.298;18.996;2024-03-06T07:31:05;96.80;;;31.20;;
77880;SDS011;67077;50.298;18.996;2024-03-06T07:33:33;90.70;;;32.90;;
77880;SDS011;67077;50.298;18.996;2024-03-06T07:36:01;105.20;;;33.60;;
77880;SDS011;67077;50.298;18.996;2024-03-06T07:38:29;93.70;;;31.60;;
77880;SDS011;67077;50.298;18.996;2024-03-06T07:40:57;77.80;;;30.60;;
77880;SDS011;67077;50.298;18.996;2024-03-06T07:43:25;107.60;;;31.30;;
77880;SDS011;67077;50.298;18.996;2024-03-06T07:45:53;96.10;;;30.80;;
77880;SDS011;67077;50.298;18.996;2024-03-06T07:48:21;89.00;;;32.90;;
77880;SDS011;67077;50.298;18.996;2024-03-06T07:50:49;91.70;;;34.70;;
77880;SDS011;67077;50.298;18.996;2024-03-06T07:53:17;100.80;;;33.80;;
77880;SDS011;67077;50.298;18.996;2024-03-06T07:55:43;95.20;;;32.80;;
77880;SDS011;67077;50.298;18.996;2024-03-06T07:58:09;91.40;;;35.10;;
77880;SDS011;67077;50.298;18.996;2024-03-06T08:00:36;92.60;;;35.80;;
77880;SDS011;67077;50.298;18.996;2024-03-06T08:03:02;79.50;;;33.30;;
77880;SDS011;67077;50.298;18.996;2024-03-06T08:05:28;92.10;;;32.80;;
77880;SDS011;67077;50.298;18.996;2024-03-06T08:07:54;99.40;;;34.70;;
77880;SDS011;67077;50.298;18.996;2024-03-06T08:10:20;83.50;;;32.00;;
77880;SDS011;67077;50.298;18.996;2024-03-06T08:12:46;80.10;;;32.60;;
77880;SDS011;67077;50.298;18.996;2024-03-06T08:15:13;82.40;;;33.20;;
77880;SDS011;67077;50.298;18.996;2024-03-06T08:17:40;79.60;;;33.70;;
77880;SDS011;67077;50.298;18.996;2024-03-06T08:20:08;74.80;;;33.10;;
77880;SDS011;67077;50.298;18.996;2024-03-06T08:22:39;68.20;;;31.30;;
77880;SDS011;67077;50.298;18.996;2024-03-06T08:25:09;68.70;;;30.70;;
77880;SDS011;67077;50.298;18.996;2024-03-06T08:27:38;72.20;;;34.60;;
77880;SDS011;67077;50.298;18.996;2024-03-06T08:30:05;77.60;;;34.20;;
77880;SDS011;67077;50.298;18.996;2024-03-06T08:32:33;71.70;;;31.80;;
77880;SDS011;67077;50.298;18.996;2024-03-06T08:35:10;65.60;;;30.70;;
77880;SDS011;67077;50.298;18.996;2024-03-06T08:37:37;64.70;;;30.20;;
77880;SDS011;67077;50.298;18.996;2024-03-06T08:40:05;59.50;;;28.90;;
77880;SDS011;67077;50.298;18.996;2024-03-06T08:42:33;63.00;;;30.20;;
77880;SDS011;67077;50.298;18.996;2024-03-06T08:44:59;58.00;;;28.40;;
77880;SDS011;67077;50.298;18.996;2024-03-06T08:47:26;60.30;;;29.90;;
77880;SDS011;67077;50.298;18.996;2024-03-06T08:49:52;63.80;;;31.30;;
77880;SDS011;67077;50.298;18.996;2024-03-06T08:52:17;63.60;;;29.60;;
77880;SDS011;67077;50.298;18.996;2024-03-06T08:54:43;53.30;;;27.50;;
77880;SDS011;67077;50.298;18.996;2024-03-06T08:57:10;52.90;;;27.00;;
77880;SDS011;67077;50.298;18.996;2024-03-06T08:59:36;56.50;;;28.90;;
77880;SDS011;67077;50.298;18.996;2024-03-06T09:02:16;60.60;;;29.70;;
77880;SDS011;67077;50.298;18.996;2024-03-06T09:04:45;62.30;;;32.20;;
77880;SDS011;67077;50.298;18.996;2024-03-06T09:07:12;65.40;;;32.80;;
77880;SDS011;67077;50.298;18.996;2024-03-06T09:09:40;58.70;;;29.80;;
77880;SDS011;67077;50.298;18.996;2024-03-06T09:12:07;47.60;;;25.50;;
77880;SDS011;67077;50.298;18.996;2024-03-06T09:14:38;53.40;;;27.50;;
77880;SDS011;67077;50.298;18.996;2024-03-06T09:17:08;47.90;;;24.30;;
77880;SDS011;67077;50.298;18.996;2024-03-06T09:19:40;41.90;;;22.60;;
77880;SDS011;67077;50.298;18.996;2024-03-06T09:22:07;40.70;;;21.60;;
77880;SDS011;67077;50.298;18.996;2024-03-06T09:24:33;42.80;;;22.10;;
77880;SDS011;67077;50.298;18.996;2024-03-06T09:27:04;39.60;;;21.40;;
77880;SDS011;67077;50.298;18.996;2024-03-06T09:29:31;36.40;;;20.60;;
77880;SDS011;67077;50.298;18.996;2024-03-06T09:31:57;35.30;;;20.30;;
77880;SDS011;67077;50.298;18.996;2024-03-06T09:34:24;37.20;;;20.40;;
77880;SDS011;67077;50.298;18.996;2024-03-06T09:36:50;35.80;;;20.00;;
77880;SDS011;67077;50.298;18.996;2024-03-06T09:39:17;36.80;;;20.80;;
77880;SDS011;67077;50.298;18.996;2024-03-06T09:44:19;35.80;;;20.30;;
77880;SDS011;67077;50.298;18.996;2024-03-06T09:46:47;37.20;;;21.30;;
77880;SDS011;67077;50.298;18.996;2024-03-06T09:49:15;36.10;;;20.30;;
77880;SDS011;67077;50.298;18.996;2024-03-06T09:51:42;34.10;;;19.70;;
77880;SDS011;67077;50.298;18.996;2024-03-06T09:54:11;36.10;;;21.00;;
77880;SDS011;67077;50.298;18.996;2024-03-06T09:56:41;35.00;;;19.70;;
77880;SDS011;67077;50.298;18.996;2024-03-06T09:59:11;35.50;;;19.60;;
77880;SDS011;67077;50.298;18.996;2024-03-06T10:01:39;35.80;;;20.50;;
77880;SDS011;67077;50.298;18.996;2024-03-06T10:04:27;35.20;;;20.10;;
77880;SDS011;67077;50.298;18.996;2024-03-06T10:06:57;37.20;;;21.10;;
77880;SDS011;67077;50.298;18.996;2024-03-06T10:09:25;37.50;;;20.00;;
77880;SDS011;67077;50.298;18.996;2024-03-06T10:11:52;37.50;;;20.20;;
77880;SDS011;67077;50.298;18.996;2024-03-06T10:14:21;37.10;;;21.10;;
77880;SDS011;67077;50.298;18.996;2024-03-06T10:16:52;37.80;;;21.40;;
77880;SDS011;67077;50.298;18.996;2024-03-06T10:19:18;39.90;;;22.00;;
77880;SDS011;67077;50.298;18.996;2024-03-06T10:21:48;35.50;;;20.60;;
77880;SDS011;67077;50.298;18.996;2024-03-06T10:24:20;41.00;;;22.40;;
77880;SDS011;67077;50.298;18.996;2024-03-06T10:26:49;40.70;;;21.70;;
77880;SDS011;67077;50.298;18.996;2024-03-06T10:29:17;42.80;;;22.50;;
77880;SDS011;67077;50.298;18.996;2024-03-06T10:31:48;41.70;;;22.20;;
77880;SDS011;67077;50.298;18.996;2024-03-06T10:34:13;40.90;;;22.90;;
77880;SDS011;67077;50.298;18.996;2024-03-06T10:36:39;42.60;;;22.20;;
77880;SDS011;67077;50.298;18.996;2024-03-06T10:39:08;43.80;;;22.80;;
77880;SDS011;67077;50.298;18.996;2024-03-06T10:41:39;45.50;;;24.40;;
77880;SDS011;67077;50.298;18.996;2024-03-06T10:44:08;45.80;;;24.10;;
77880;SDS011;67077;50.298;18.996;2024-03-06T10:46:43;42.90;;;24.10;;
77880;SDS011;67077;50.298;18.996;2024-03-06T10:49:18;46.30;;;25.50;;
77880;SDS011;67077;50.298;18.996;2024-03-06T10:51:45;43.20;;;24.60;;
77880;SDS011;67077;50.298;18.996;2024-03-06T10:54:12;47.90;;;24.50;;
77880;SDS011;67077;50.298;18.996;2024-03-06T10:56:40;43.60;;;23.70;;
77880;SDS011;67077;50.298;18.996;2024-03-06T10:59:10;46.60;;;25.10;;
77880;SDS011;67077;50.298;18.996;2024-03-06T11:01:39;47.00;;;24.70;;
77880;SDS011;67077;50.298;18.996;2024-03-06T11:04:06;48.40;;;26.30;;
77880;SDS011;67077;50.298;18.996;2024-03-06T11:06:33;50.00;;;25.90;;
77880;SDS011;67077;50.298;18.996;2024-03-06T11:09:00;51.60;;;26.90;;
77880;SDS011;67077;50.298;18.996;2024-03-06T11:11:28;52.30;;;27.10;;
77880;SDS011;67077;50.298;18.996;2024-03-06T11:13:55;49.90;;;26.70;;
77880;SDS011;67077;50.298;18.996;2024-03-06T11:16:31;52.20;;;28.20;;
77880;SDS011;67077;50.298;18.996;2024-03-06T11:19:05;54.80;;;28.20;;
77880;SDS011;67077;50.298;18.996;2024-03-06T11:21:44;56.30;;;29.60;;
77880;SDS011;67077;50.298;18.996;2024-03-06T11:24:13;56.10;;;28.50;;
77880;SDS011;67077;50.298;18.996;2024-03-06T11:26:42;58.50;;;29.60;;
77880;SDS011;67077;50.298;18.996;2024-03-06T11:29:13;57.50;;;28.60;;
77880;SDS011;67077;50.298;18.996;2024-03-06T11:31:55;58.90;;;29.60;;
77880;SDS011;67077;50.298;18.996;2024-03-06T11:34:29;65.90;;;32.00;;
77880;SDS011;67077;50.298;18.996;2024-03-06T11:36:59;61.30;;;29.20;;
77880;SDS011;67077;50.298;18.996;2024-03-06T11:39:33;60.70;;;28.90;;
77880;SDS011;67077;50.298;18.996;2024-03-06T11:42:02;56.40;;;28.30;;
77880;SDS011;67077;50.298;18.996;2024-03-06T11:44:28;56.00;;;28.10;;
77880;SDS011;67077;50.298;18.996;2024-03-06T11:49:24;62.00;;;29.50;;
77880;SDS011;67077;50.298;18.996;2024-03-06T11:51:53;58.80;;;29.80;;
77880;SDS011;67077;50.298;18.996;2024-03-06T11:54:24;50.90;;;26.10;;
77880;SDS011;67077;50.298;18.996;2024-03-06T11:56:53;48.30;;;25.50;;
77880;SDS011;67077;50.298;18.996;2024-03-06T11:59:20;45.50;;;24.80;;
77880;SDS011;67077;50.298;18.996;2024-03-06T12:01:48;43.40;;;23.40;;
77880;SDS011;67077;50.298;18.996;2024-03-06T12:04:14;44.30;;;23.30;;
77880;SDS011;67077;50.298;18.996;2024-03-06T12:06:41;46.30;;;24.70;;
77880;SDS011;67077;50.298;18.996;2024-03-06T12:09:06;43.60;;;23.10;;
77880;SDS011;67077;50.298;18.996;2024-03-06T12:11:37;39.50;;;21.30;;
77880;SDS011;67077;50.298;18.996;2024-03-06T12:14:03;47.10;;;22.40;;
77880;SDS011;67077;50.298;18.996;2024-03-06T12:16:29;39.40;;;21.30;;
77880;SDS011;67077;50.298;18.996;2024-03-06T12:18:55;39.00;;;21.60;;
77880;SDS011;67077;50.298;18.996;2024-03-06T12:21:32;40.20;;;21.90;;
77880;SDS011;67077;50.298;18.996;2024-03-06T12:24:06;45.00;;;23.00;;
77880;SDS011;67077;50.298;18.996;2024-03-06T12:26:34;44.50;;;23.00;;
77880;SDS011;67077;50.298;18.996;2024-03-06T12:29:07;43.50;;;22.60;;
77880;SDS011;67077;50.298;18.996;2024-03-06T12:31:37;50.50;;;24.90;;
77880;SDS011;67077;50.298;18.996;2024-03-06T12:34:07;43.90;;;22.10;;
77880;SDS011;67077;50.298;18.996;2024-03-06T12:36:34;49.40;;;26.40;;
77880;SDS011;67077;50.298;18.996;2024-03-06T12:39:02;47.20;;;23.50;;
77880;SDS011;67077;50.298;18.996;2024-03-06T12:41:29;44.20;;;23.40;;
77880;SDS011;67077;50.298;18.996;2024-03-06T12:43:55;43.50;;;23.70;;
77880;SDS011;67077;50.298;18.996;2024-03-06T12:46:22;49.50;;;24.60;;
77880;SDS011;67077;50.298;18.996;2024-03-06T12:48:51;43.00;;;22.80;;
77880;SDS011;67077;50.298;18.996;2024-03-06T12:51:17;44.40;;;23.90;;
77880;SDS011;67077;50.298;18.996;2024-03-06T12:53:43;43.80;;;22.70;;
77880;SDS011;67077;50.298;18.996;2024-03-06T12:56:09;41.90;;;21.50;;
77880;SDS011;67077;50.298;18.996;2024-03-06T12:58:35;43.00;;;22.60;;
77880;SDS011;67077;50.298;18.996;2024-03-06T13:01:02;42.60;;;22.30;;
77880;SDS011;67077;50.298;18.996;2024-03-06T13:03:28;40.80;;;21.90;;
77880;SDS011;67077;50.298;18.996;2024-03-06T13:05:54;41.10;;;21.50;;
77880;SDS011;67077;50.298;18.996;2024-03-06T13:08:21;43.70;;;23.50;;
77880;SDS011;67077;50.298;18.996;2024-03-06T13:10:47;40.80;;;22.30;;
77880;SDS011;67077;50.298;18.996;2024-03-06T13:13:13;39.90;;;21.70;;
77880;SDS011;67077;50.298;18.996;2024-03-06T13:15:39;41.80;;;23.00;;
77880;SDS011;67077;50.298;18.996;2024-03-06T13:18:05;41.30;;;22.60;;
77880;SDS011;67077;50.298;18.996;2024-03-06T13:20:32;42.80;;;22.20;;
77880;SDS011;67077;50.298;18.996;2024-03-06T13:22:59;48.40;;;24.40;;
77880;SDS011;67077;50.298;18.996;2024-03-06T13:25:26;40.70;;;21.80;;
77880;SDS011;67077;50.298;18.996;2024-03-06T13:27:52;46.10;;;22.80;;
77880;SDS011;67077;50.298;18.996;2024-03-06T13:30:18;47.40;;;23.30;;
77880;SDS011;67077;50.298;18.996;2024-03-06T13:32:44;45.70;;;24.00;;
77880;SDS011;67077;50.298;18.996;2024-03-06T13:35:13;47.50;;;24.20;;
77880;SDS011;67077;50.298;18.996;2024-03-06T13:37:43;44.80;;;23.50;;
77880;SDS011;67077;50.298;18.996;2024-03-06T13:40:09;47.30;;;23.30;;
77880;SDS011;67077;50.298;18.996;2024-03-06T13:42:41;42.30;;;22.80;;
77880;SDS011;67077;50.298;18.996;2024-03-06T13:45:08;45.90;;;23.60;;
77880;SDS011;67077;50.298;18.996;2024-03-06T13:47:43;48.10;;;24.80;;
77880;SDS011;67077;50.298;18.996;2024-03-06T13:50:14;49.80;;;24.90;;
77880;SDS011;67077;50.298;18.996;2024-03-06T13:55:08;45.70;;;21.30;;
77880;SDS011;67077;50.298;18.996;2024-03-06T13:57:35;53.50;;;25.90;;
77880;SDS011;67077;50.298;18.996;2024-03-06T14:00:02;56.00;;;26.40;;
77880;SDS011;67077;50.298;18.996;2024-03-06T14:02:31;54.90;;;25.40;;
77880;SDS011;67077;50.298;18.996;2024-03-06T14:04:57;53.70;;;25.90;;
77880;SDS011;67077;50.298;18.996;2024-03-06T14:07:23;58.70;;;27.50;;
77880;SDS011;67077;50.298;18.996;2024-03-06T14:09:50;58.10;;;27.50;;
77880;SDS011;67077;50.298;18.996;2024-03-06T14:12:16;59.60;;;27.10;;
77880;SDS011;67077;50.298;18.996;2024-03-06T14:14:42;58.80;;;28.20;;
77880;SDS011;67077;50.298;18.996;2024-03-06T14:17:11;57.30;;;27.70;;